Météo Nord-Pas-de-Calais   La météo au plus près de chez vous

Station météorologique

Observations météo à La Desirade Meteo (97110)

97110002 27 m Dernier relevé à 05:54
28.6°C
Humidité 82 % Vent 22 km/h 1014.8 hPa

Journée consultée

Samedi 5 Septembre 2026

Synthèse de la journée

Périodes de référence en UTC

Température maximale

32.5°C

à 19:06

06h 06h

Température minimale

28.4°C

à 00:24

18h 18h

Rafale maximale

32 km/h

à 05:48

00h 00h

Précipitations

0.2 mm

Cumul quotidien

06h 06h

Ensoleillement

0h 0 mins

Durée quotidienne

00h 00h

Graphiques de la journée

Heure locale Réduire

Données détaillées

Relevés météo

Pas de 6 minutes Afficher les relevés infra-horaires
Relevés météo détaillés à La Desirade Meteo pour le Samedi 5 Septembre 2026
Heure Température °C Point de rosée °C Humidité % Vent moyen (raf.), km/h Précipitations mm Ensoleillement min Rayonnement global W/m² Pression hPa
05:54 28.6 °C 25.2 °C 82 % 23 km/h (32 km/h) 0 mm0 mm 0 min 0 W/m² 1014.4 hPa
05:48 28.6 °C 25.2 °C 82 % 23 km/h (32 km/h) 0 mm0 mm 0 min 0 W/m² 1014.5 hPa
05:42 28.6 °C 25.2 °C 82 % 23 km/h (30 km/h) 0 mm0 mm 0 min 0 W/m² 1014.5 hPa
05:36 28.6 °C 25 °C 81 % 24 km/h (30 km/h) 0 mm0 mm 0 min 0 W/m² 1014.6 hPa
05:30 28.7 °C 25.3 °C 82 % 22 km/h (30 km/h) 0 mm0 mm 0 min 0 W/m² 1014.7 hPa
05:24 28.6 °C 25 °C 81 % 23 km/h (30 km/h) 0 mm0 mm 0 min 0 W/m² 1014.7 hPa
05:18 28.6 °C 25 °C 81 % 24 km/h (30 km/h) 0 mm0 mm 0 min 0 W/m² 1014.7 hPa
05:12 28.6 °C 25.2 °C 82 % 24 km/h (30 km/h) 0 mm0 mm 0 min 0 W/m² 1014.6 hPa
05:06 28.6 °C 25.2 °C 82 % 24 km/h (30 km/h) 0 mm0 mm 0 min 0 W/m² 1014.6 hPa
05:00 28.6 °C 25.2 °C 82 % 23 km/h (29 km/h) 0 mm0 mm 0 min 0 W/m² 1014.7 hPa
04:54 28.8 °C 25.4 °C 82 % 22 km/h (28 km/h) 0 mm0 mm 0 min 0 W/m² 1014.8 hPa
04:48 28.8 °C 25.4 °C 82 % 21 km/h (27 km/h) 0 mm0 mm 0 min 0 W/m² 1014.8 hPa
04:42 28.7 °C 25.1 °C 81 % 21 km/h (28 km/h) 0 mm0 mm 0 min 0 W/m² 1014.8 hPa
04:36 28.7 °C 25.1 °C 81 % 22 km/h (30 km/h) 0 mm0 mm 0 min 0 W/m² 1014.9 hPa
04:30 28.7 °C 25.1 °C 81 % 22 km/h (27 km/h) 0 mm0 mm 0 min 0 W/m² 1014.9 hPa
04:24 28.7 °C 25.1 °C 81 % 21 km/h (29 km/h) 0 mm0 mm 0 min 0 W/m² 1015 hPa
04:18 28.8 °C 25.4 °C 82 % 21 km/h (29 km/h) 0 mm0 mm 0 min 0 W/m² 1015 hPa
04:12 28.7 °C 25.1 °C 81 % 23 km/h (29 km/h) 0 mm0 mm 0 min 0 W/m² 1015 hPa
04:06 28.7 °C 25.1 °C 81 % 23 km/h (28 km/h) 0 mm0 mm 0 min 0 W/m² 1015.1 hPa
04:00 28.7 °C 25.1 °C 81 % 23 km/h (29 km/h) 0 mm0 mm 0 min 0 W/m² 1015.1 hPa
03:54 28.7 °C 25.1 °C 81 % 23 km/h (28 km/h) 0 mm0 mm 0 min 0 W/m² 1015.2 hPa
03:48 28.9 °C 25.3 °C 81 % 21 km/h (28 km/h) 0 mm0 mm 0 min 0 W/m² 1015.1 hPa
03:42 28.9 °C 25.3 °C 81 % 20 km/h (26 km/h) 0 mm0 mm 0 min 0 W/m² 1015.1 hPa
03:36 28.8 °C 25.2 °C 81 % 21 km/h (27 km/h) 0 mm0 mm 0 min 0 W/m² 1015 hPa
03:30 28.9 °C 25.3 °C 81 % 21 km/h (27 km/h) 0 mm0 mm 0 min 0 W/m² 1015 hPa
03:24 28.9 °C 25.1 °C 80 % 22 km/h (28 km/h) 0 mm0 mm 0 min 0 W/m² 1015 hPa
03:18 28.7 °C 24.7 °C 79 % 21 km/h (28 km/h) 0 mm0 mm 0 min 0 W/m² 1015 hPa
03:12 28.7 °C 24.9 °C 80 % 20 km/h (27 km/h) 0 mm0 mm 0 min 0 W/m² 1015 hPa
03:06 28.7 °C 24.9 °C 80 % 21 km/h (28 km/h) 0 mm0 mm 0 min 0 W/m² 1015 hPa
03:00 28.7 °C 24.9 °C 80 % 21 km/h (28 km/h) 0 mm0 mm 0 min 0 W/m² 1014.9 hPa
02:54 28.7 °C 24.9 °C 80 % 21 km/h (28 km/h) 0 mm0 mm 0 min 0 W/m² 1014.9 hPa
02:48 28.6 °C 24.8 °C 80 % 22 km/h (28 km/h) 0 mm0 mm 0 min 0 W/m² 1014.8 hPa
02:42 28.6 °C 24.8 °C 80 % 21 km/h (27 km/h) 0 mm0 mm 0 min 0 W/m² 1014.7 hPa
02:36 28.7 °C 25.1 °C 81 % 21 km/h (28 km/h) 0 mm0 mm 0 min 0 W/m² 1014.7 hPa
02:30 28.5 °C 24.9 °C 81 % 20 km/h (28 km/h) 0 mm0 mm 0 min 0 W/m² 1014.7 hPa
02:24 28.7 °C 25.3 °C 82 % 20 km/h (26 km/h) 0 mm0 mm 0 min 0 W/m² 1014.7 hPa
02:18 28.6 °C 25.2 °C 82 % 19 km/h (24 km/h) 0 mm0 mm 0 min 0 W/m² 1014.7 hPa
02:12 28.6 °C 25.2 °C 82 % 20 km/h (26 km/h) 0 mm0 mm 0 min 0 W/m² 1014.7 hPa
02:06 28.7 °C 25.3 °C 82 % 20 km/h (26 km/h) 0 mm0 mm 0 min 0 W/m² 1014.7 hPa
02:00 28.7 °C 25.3 °C 82 % 20 km/h (23 km/h) 0 mm0 mm 0 min 0 W/m² 1014.7 hPa
01:54 28.7 °C 25.1 °C 81 % 19 km/h (23 km/h) 0 mm0 mm 0 min 0 W/m² 1014.7 hPa
01:48 28.7 °C 25.1 °C 81 % 19 km/h (23 km/h) 0 mm0 mm 0 min 0 W/m² 1014.6 hPa
01:42 28.7 °C 25.1 °C 81 % 20 km/h (26 km/h) 0 mm0 mm 0 min 0 W/m² 1014.5 hPa
01:36 28.6 °C 24.8 °C 80 % 21 km/h (26 km/h) 0 mm0 mm 0 min 0 W/m² 1014.4 hPa
01:30 28.7 °C 25.1 °C 81 % 19 km/h (24 km/h) 0 mm0 mm 0 min 0 W/m² 1014.3 hPa
01:24 28.7 °C 25.1 °C 81 % 20 km/h (26 km/h) 0 mm0 mm 0 min 0 W/m² 1014.3 hPa
01:18 28.7 °C 24.9 °C 80 % 22 km/h (26 km/h) 0 mm0 mm 0 min 0 W/m² 1014.3 hPa
01:12 28.8 °C 25 °C 80 % 23 km/h (28 km/h) 0 mm0 mm 0 min 0 W/m² 1014.2 hPa
01:06 28.8 °C 25 °C 80 % 23 km/h (28 km/h) 0 mm0 mm 0 min 0 W/m² 1014.2 hPa
01:00 28.8 °C 25 °C 80 % 22 km/h (28 km/h) 0 mm0 mm 0 min 0 W/m² 1014.1 hPa
00:54 28.8 °C 25 °C 80 % 22 km/h (28 km/h) 0 mm0 mm 0 min 0 W/m² 1014.1 hPa
00:48 28.8 °C 25 °C 80 % 22 km/h (28 km/h) 0 mm0 mm 0 min 0 W/m² 1014 hPa
00:42 28.7 °C 24.7 °C 79 % 22 km/h (27 km/h) 0 mm0 mm 0 min 0 W/m² 1014 hPa
00:36 28.6 °C 24.6 °C 79 % 21 km/h (27 km/h) 0 mm0 mm 0 min 0 W/m² 1014 hPa
00:30 28.6 °C 24.6 °C 79 % 23 km/h (27 km/h) 0 mm0 mm 0 min 0 W/m² 1014 hPa
00:24 28.4 °C 24.4 °C 79 % 24 km/h (27 km/h) 0 mm0 mm 0 min 0 W/m² 1014.1 hPa
00:18 28.5 °C 24.5 °C 79 % 23 km/h (28 km/h) 0 mm0 mm 0 min 0 W/m² 1014 hPa
00:12 28.5 °C 24.7 °C 80 % 21 km/h (28 km/h) 0 mm0 mm 0 min 0 W/m² 1014 hPa
00:06 28.6 °C 24.8 °C 80 % 20 km/h (26 km/h) 0 mm0 mm 0 min 4.4 W/m² 1013.9 hPa
00:00 28.6 °C 24.8 °C 80 % 21 km/h (28 km/h) 0 mm0 mm 2 min 7.2 W/m² 1013.9 hPa

Données via Météo-France

Relevés météo à La Desirade Meteo

Cette page rassemble les observations de la station de La Desirade Meteo : température, humidité, vent, précipitations et pression atmosphérique. Les graphiques facilitent le suivi de la journée, tandis que le tableau donne accès aux mesures horaires et infra-horaires disponibles.

Pour replacer ces mesures dans leur contexte, consultez la climatologie de La Desirade Meteo. Retrouvez aussi la carte des observations météo en temps réel.